Time;durP1;ratioP1;P1;durP2;ratioP2;P2;SDS_P1;SDS_P2;PMS_P1;PMS_P2;Temp;Humidity;BMP_temperature;BMP_pressure;BME280_temperature;BME280_humidity;BME280_pressure;Samples;Min_cycle;Max_cycle;Signal;HPM_P1;HPM_P2
2021/12/13 00:01:55;;;;;;;14.55;8.20;;;5.70;99.90;;;;;;5073856;28;20616;-68
2021/12/13 00:04:27;;;;;;;11.38;7.28;;;5.70;99.90;;;;;;5061111;28;20623;-68
2021/12/13 00:07:02;;;;;;;11.77;7.47;;;5.70;99.90;;;;;;5073461;28;20224;-68
2021/12/13 00:09:32;;;;;;;12.23;7.75;;;5.70;99.90;;;;;;5073727;28;20213;-68
2021/12/13 00:12:02;;;;;;;14.07;7.50;;;5.70;99.90;;;;;;5073899;28;20565;-68
2021/12/13 00:14:35;;;;;;;14.82;7.72;;;5.70;99.90;;;;;;5073509;28;20207;-68
2021/12/13 00:17:09;;;;;;;16.40;8.10;;;5.70;99.90;;;;;;5074076;28;20204;-68
2021/12/13 00:19:43;;;;;;;15.27;7.70;;;5.70;99.90;;;;;;5073552;28;20705;-68
2021/12/13 00:22:42;;;;;;;11.05;7.63;;;5.70;99.90;;;;;;5074068;28;20191;-68
2021/12/13 00:25:15;;;;;;;13.05;9.57;;;5.70;99.90;;;;;;5069309;28;20230;-69
2021/12/13 00:27:48;;;;;;;11.48;7.95;;;5.70;99.90;;;;;;5073772;28;20548;-69
2021/12/13 00:30:45;;;;;;;12.45;7.85;;;5.70;99.90;;;;;;5073686;28;20211;-69
2021/12/13 00:33:20;;;;;;;10.85;7.75;;;5.70;99.90;;;;;;5073422;28;20192;-68
2021/12/13 00:36:15;;;;;;;10.40;7.70;;;5.70;99.90;;;;;;5073617;28;20600;-68
2021/12/13 00:38:47;;;;;;;11.40;7.50;;;5.80;99.90;;;;;;5072472;28;20565;-68
2021/12/13 00:41:22;;;;;;;12.38;8.55;;;5.70;99.90;;;;;;5073470;28;20554;-69
2021/12/13 00:44:01;;;;;;;12.45;7.95;;;5.80;99.90;;;;;;5072229;28;20199;-68
2021/12/13 00:46:29;;;;;;;10.18;7.95;;;5.70;99.90;;;;;;5073385;28;20216;-68
2021/12/13 00:48:58;;;;;;;14.45;7.95;;;5.70;99.90;;;;;;5073379;28;20207;-68
2021/12/13 00:51:34;;;;;;;9.07;7.93;;;5.70;99.90;;;;;;5073345;28;20306;-68
2021/12/13 00:54:09;;;;;;;16.85;8.30;;;5.70;99.90;;;;;;5073266;28;20284;-68
2021/12/13 00:56:54;;;;;;;13.20;9.07;;;5.70;99.90;;;;;;5072876;28;20708;-67
2021/12/13 00:59:25;;;;;;;9.63;7.72;;;5.70;99.90;;;;;;5071959;28;20199;-67
2021/12/13 01:02:06;;;;;;;10.25;9.20;;;5.70;99.90;;;;;;5073651;28;20238;-66
2021/12/13 01:04:54;;;;;;;12.05;7.63;;;5.70;99.90;;;;;;5077269;28;20248;-66
2021/12/13 01:07:59;;;;;;;11.02;7.82;;;5.70;99.90;;;;;;5076995;28;20212;-66
2021/12/13 01:10:48;;;;;;;17.23;8.55;;;5.70;99.90;;;;;;5057072;28;20199;-67
2021/12/13 01:13:34;;;;;;;9.32;8.27;;;5.70;99.90;;;;;;5077142;28;20261;-66
2021/12/13 01:16:15;;;;;;;17.30;9.60;;;5.70;99.90;;;;;;5075425;28;20208;-67
2021/12/13 01:19:00;;;;;;;12.25;9.25;;;5.60;99.90;;;;;;5076778;28;20200;-67
2021/12/13 01:21:55;;;;;;;17.52;9.68;;;5.60;99.90;;;;;;5076802;28;20187;-67
2021/12/13 01:27:10;;;;;;;14.02;9.80;;;5.60;99.90;;;;;;5076797;28;20260;-67
2021/12/13 01:29:37;;;;;;;14.27;9.05;;;5.60;99.90;;;;;;5076748;28;20590;-66
2021/12/13 01:32:08;;;;;;;11.73;9.00;;;5.60;99.90;;;;;;5076590;28;20730;-66
2021/12/13 01:34:37;;;;;;;17.08;8.50;;;5.60;99.90;;;;;;5076407;28;20269;-67
2021/12/13 01:37:12;;;;;;;21.98;10.93;;;5.60;99.90;;;;;;5077037;28;20207;-66
2021/12/13 01:39:53;;;;;;;14.27;9.52;;;5.60;99.90;;;;;;5076980;28;20617;-67
2021/12/13 01:42:28;;;;;;;14.15;9.30;;;5.50;99.90;;;;;;5076697;28;20196;-66
2021/12/13 01:45:03;;;;;;;16.48;9.90;;;5.50;99.90;;;;;;5076399;28;20237;-66
2021/12/13 01:47:37;;;;;;;19.45;9.98;;;5.50;99.90;;;;;;5076574;28;20211;-66
2021/12/13 01:50:20;;;;;;;15.50;9.70;;;5.50;99.90;;;;;;5076078;28;20600;-66
2021/12/13 01:52:50;;;;;;;15.38;9.68;;;5.50;99.90;;;;;;5076336;28;20188;-66
2021/12/13 01:55:29;;;;;;;15.55;10.07;;;5.50;99.90;;;;;;5076262;28;20203;-69
2021/12/13 02:01:12;;;;;;;14.50;9.98;;;5.50;99.90;;;;;;5073189;28;20671;-69
2021/12/13 02:03:42;;;;;;;12.15;10.55;;;5.50;99.90;;;;;;5076097;28;20208;-69
2021/12/13 02:06:09;;;;;;;13.90;10.05;;;5.40;99.90;;;;;;5076553;28;20563;-69
2021/12/13 02:08:36;;;;;;;17.70;10.50;;;5.40;99.90;;;;;;5076080;28;20200;-68
2021/12/13 02:11:05;;;;;;;16.13;11.00;;;5.40;99.90;;;;;;5076184;28;20200;-68
2021/12/13 02:13:38;;;;;;;19.25;10.80;;;5.40;99.90;;;;;;5076136;28;20200;-68
2021/12/13 02:18:54;;;;;;;15.50;9.90;;;5.50;99.90;;;;;;5076180;28;20191;-68
2021/12/13 02:21:30;;;;;;;17.08;11.00;;;5.50;99.90;;;;;;5075788;28;20204;-69
2021/12/13 02:24:07;;;;;;;15.43;10.48;;;5.50;99.90;;;;;;5074457;28;20208;-68
2021/12/13 02:26:43;;;;;;;18.25;10.30;;;5.50;99.90;;;;;;5075637;28;20212;-68
2021/12/13 02:29:17;;;;;;;17.83;10.43;;;5.60;99.90;;;;;;5075618;28;20558;-68
2021/12/13 02:31:44;;;;;;;16.88;10.27;;;5.60;99.90;;;;;;5075768;28;20242;-68
2021/12/13 02:34:14;;;;;;;15.35;9.80;;;5.60;99.90;;;;;;5075732;28;20199;-68
2021/12/13 02:36:50;;;;;;;13.98;9.40;;;5.60;99.90;;;;;;5075321;28;20195;-67
2021/12/13 02:39:22;;;;;;;12.38;8.48;;;5.60;99.90;;;;;;5075892;28;20237;-67
2021/12/13 02:41:49;;;;;;;12.60;9.30;;;5.70;99.90;;;;;;5075655;28;20195;-67
2021/12/13 02:44:23;;;;;;;17.20;10.95;;;5.60;99.90;;;;;;5075645;28;20204;-67
2021/12/13 02:46:52;;;;;;;14.00;9.77;;;5.60;99.90;;;;;;5075448;28;20705;-67
2021/12/13 02:49:18;;;;;;;15.90;10.52;;;5.70;99.90;;;;;;5075547;28;20317;-67
2021/12/13 02:51:50;;;;;;;13.32;9.70;;;5.60;99.90;;;;;;5072850;28;20573;-67
2021/12/13 02:54:22;;;;;;;13.60;9.55;;;5.60;99.90;;;;;;5074212;28;20216;-67
2021/12/13 02:56:52;;;;;;;14.45;11.82;;;5.70;99.90;;;;;;5074193;28;20546;-67
2021/12/13 02:59:21;;;;;;;13.38;10.05;;;5.70;99.90;;;;;;5074083;28;20207;-67
2021/12/13 03:02:03;;;;;;;27.23;19.10;;;5.70;99.90;;;;;;5074004;28;20572;-67
2021/12/13 03:04:30;;;;;;;23.95;19.17;;;5.70;99.90;;;;;;5073854;28;20524;-67
2021/12/13 03:07:17;;;;;;;19.88;14.85;;;5.70;99.90;;;;;;5073982;28;20219;-67
2021/12/13 03:09:45;;;;;;;17.33;12.02;;;5.70;99.90;;;;;;5073619;28;20705;-67
2021/12/13 03:12:15;;;;;;;15.45;11.95;;;5.70;99.90;;;;;;5072327;28;20199;-67
2021/12/13 03:14:56;;;;;;;14.82;12.40;;;5.70;99.90;;;;;;5072520;28;20204;-67
2021/12/13 03:17:29;;;;;;;39.60;31.50;;;5.70;99.90;;;;;;5073708;28;20196;-67
2021/12/13 03:20:18;;;;;;;24.27;16.85;;;5.70;99.90;;;;;;5074206;28;20218;-67
2021/12/13 03:23:09;;;;;;;16.02;12.32;;;5.60;99.90;;;;;;5073479;28;20277;-67
2021/12/13 03:26:17;;;;;;;26.40;20.75;;;5.60;99.90;;;;;;5072827;28;20195;-67
2021/12/13 03:29:15;;;;;;;18.88;14.80;;;5.60;99.90;;;;;;5054229;28;20245;-67
2021/12/13 03:31:55;;;;;;;19.88;14.15;;;5.50;99.90;;;;;;5073742;28;20207;-67
2021/12/13 03:34:27;;;;;;;18.02;13.77;;;5.50;99.90;;;;;;5073466;28;20204;-67
2021/12/13 03:37:06;;;;;;;19.85;14.10;;;5.60;99.90;;;;;;5073616;28;20238;-67
2021/12/13 03:39:42;;;;;;;23.75;14.10;;;5.60;99.90;;;;;;5072313;28;20656;-67
2021/12/13 03:42:24;;;;;;;19.27;13.45;;;5.60;99.90;;;;;;5073697;28;20179;-67
2021/12/13 03:44:54;;;;;;;16.98;12.48;;;5.60;99.90;;;;;;5072073;28;20199;-67
2021/12/13 03:47:25;;;;;;;21.45;13.77;;;5.60;99.90;;;;;;5073544;28;20607;-67
2021/12/13 03:49:56;;;;;;;18.77;13.32;;;5.60;99.90;;;;;;5071872;28;20200;-67
2021/12/13 03:52:42;;;;;;;18.20;13.48;;;5.60;99.90;;;;;;5111284;27;20336;-67
2021/12/13 03:55:10;;;;;;;17.83;12.95;;;5.60;99.90;;;;;;5111376;28;20225;-67
2021/12/13 03:57:50;;;;;;;18.45;14.88;;;5.60;99.90;;;;;;5111354;28;20248;-67
2021/12/13 04:00:21;;;;;;;17.58;13.02;;;5.60;99.90;;;;;;5111552;28;20179;-67
2021/12/13 04:02:48;;;;;;;14.88;11.27;;;5.60;99.90;;;;;;5111251;28;20186;-67
2021/12/13 04:05:19;;;;;;;19.58;11.52;;;5.60;99.90;;;;;;5111394;28;20306;-67
2021/12/13 04:07:51;;;;;;;16.58;9.93;;;5.60;99.90;;;;;;5111150;28;20532;-67
2021/12/13 04:10:24;;;;;;;18.40;12.18;;;5.60;99.90;;;;;;5110817;28;20183;-67
2021/12/13 04:12:54;;;;;;;16.90;11.57;;;5.60;99.90;;;;;;5111062;28;20182;-67
2021/12/13 04:15:36;;;;;;;20.65;11.35;;;5.60;99.90;;;;;;5111192;28;20247;-67
2021/12/13 04:18:15;;;;;;;24.23;19.27;;;5.60;99.90;;;;;;5110842;28;20249;-67
2021/12/13 04:20:44;;;;;;;19.27;11.75;;;5.50;99.90;;;;;;5110660;28;20577;-67
2021/12/13 04:23:18;;;;;;;17.55;13.07;;;5.50;99.90;;;;;;5110972;28;20255;-67
2021/12/13 04:25:48;;;;;;;17.75;13.52;;;5.50;99.90;;;;;;5110798;28;20191;-67
2021/12/13 04:28:21;;;;;;;18.63;13.90;;;5.50;99.90;;;;;;5111047;28;20255;-67
2021/12/13 04:30:54;;;;;;;19.23;13.68;;;5.50;99.90;;;;;;5111140;28;20306;-67
2021/12/13 04:33:40;;;;;;;15.77;12.00;;;5.50;99.90;;;;;;5110946;28;20202;-67
2021/12/13 04:36:23;;;;;;;15.98;11.30;;;5.50;99.90;;;;;;5109412;28;20203;-67
2021/12/13 04:39:01;;;;;;;14.90;10.70;;;5.50;99.90;;;;;;5110554;28;20578;-67
2021/12/13 04:41:33;;;;;;;19.40;11.63;;;5.50;99.90;;;;;;5110579;28;20190;-66
2021/12/13 04:44:12;;;;;;;15.70;11.95;;;5.50;99.90;;;;;;5111115;28;20183;-67
2021/12/13 04:46:41;;;;;;;15.57;12.43;;;5.50;99.90;;;;;;5110985;28;20195;-67
2021/12/13 04:49:12;;;;;;;19.17;11.82;;;5.50;99.90;;;;;;5110935;28;20637;-69
2021/12/13 04:51:44;;;;;;;18.08;14.20;;;5.50;99.90;;;;;;5122662;28;20631;-66
2021/12/13 04:54:13;;;;;;;17.33;12.95;;;5.50;99.90;;;;;;5130808;27;20768;-66
2021/12/13 04:56:41;;;;;;;16.27;12.77;;;5.50;99.90;;;;;;5131146;27;20201;-68
2021/12/13 04:59:10;;;;;;;25.95;13.38;;;5.40;99.90;;;;;;5130645;28;20198;-67
2021/12/13 05:01:37;;;;;;;16.17;12.20;;;5.40;99.90;;;;;;5131001;27;20197;-67
2021/12/13 05:04:07;;;;;;;17.17;13.32;;;5.40;99.90;;;;;;5116759;27;20260;-67
2021/12/13 05:06:38;;;;;;;21.25;13.32;;;5.40;99.90;;;;;;5117144;28;20187;-67
2021/12/13 05:09:14;;;;;;;22.30;16.17;;;5.30;99.90;;;;;;5117168;28;20520;-68
2021/12/13 05:11:48;;;;;;;21.33;14.52;;;5.30;99.90;;;;;;5117143;28;20266;-66
2021/12/13 05:14:16;;;;;;;19.65;14.60;;;5.30;99.90;;;;;;5116997;28;20186;-70
2021/12/13 05:16:49;;;;;;;19.85;15.00;;;5.30;99.90;;;;;;5116506;28;20207;-69
2021/12/13 05:19:33;;;;;;;25.17;15.05;;;5.30;99.90;;;;;;5115018;28;20259;-69
2021/12/13 05:22:01;;;;;;;22.42;14.85;;;5.20;99.90;;;;;;5116484;28;20187;-69
2021/12/13 05:24:31;;;;;;;18.55;14.45;;;5.20;99.90;;;;;;5116432;28;20421;-68
2021/12/13 05:27:12;;;;;;;20.10;14.80;;;5.20;99.90;;;;;;5116512;28;20654;-68
2021/12/13 05:29:48;;;;;;;18.15;14.65;;;5.20;99.90;;;;;;5116851;28;20194;-69
2021/12/13 05:32:30;;;;;;;24.20;14.60;;;5.10;99.90;;;;;;5116500;28;20210;-69
2021/12/13 05:35:01;;;;;;;18.55;14.18;;;5.10;99.90;;;;;;5116281;28;20183;-68
2021/12/13 05:37:49;;;;;;;29.13;18.65;;;5.10;99.90;;;;;;5116414;28;20194;-69
2021/12/13 05:40:25;;;;;;;22.00;17.65;;;5.10;99.90;;;;;;5116481;28;20198;-69
2021/12/13 05:42:55;;;;;;;23.45;17.73;;;5.00;99.90;;;;;;5116350;28;20186;-69
2021/12/13 05:45:38;;;;;;;26.65;18.50;;;5.00;99.90;;;;;;5116227;27;20203;-68
2021/12/13 05:48:09;;;;;;;27.33;18.48;;;5.00;99.90;;;;;;5116023;28;20243;-68
2021/12/13 05:50:47;;;;;;;25.00;20.20;;;5.00;99.90;;;;;;5115812;27;20299;-69
2021/12/13 05:53:27;;;;;;;27.75;20.02;;;5.00;99.90;;;;;;5116223;28;20224;-68
2021/12/13 05:56:08;;;;;;;29.25;18.40;;;4.90;99.90;;;;;;5114509;28;20195;-68
2021/12/13 05:58:57;;;;;;;24.42;19.20;;;4.90;99.90;;;;;;5116571;28;20213;-68
2021/12/13 06:01:31;;;;;;;23.95;17.73;;;5.00;99.90;;;;;;5115869;28;20263;-68
2021/12/13 06:04:06;;;;;;;26.10;17.60;;;5.00;99.90;;;;;;5116096;28;20670;-68
2021/12/13 06:06:43;;;;;;;34.08;16.75;;;5.00;99.90;;;;;;5115849;28;20202;-68
2021/12/13 06:09:10;;;;;;;27.98;17.98;;;5.00;99.90;;;;;;5115801;28;20186;-68
2021/12/13 06:11:39;;;;;;;29.08;18.17;;;5.00;99.90;;;;;;5115818;28;20218;-68
2021/12/13 06:14:16;;;;;;;22.63;16.50;;;5.00;99.90;;;;;;5114910;28;20207;-68
2021/12/13 06:17:07;;;;;;;26.23;17.95;;;5.00;99.90;;;;;;5115786;27;20228;-68
2021/12/13 06:19:41;;;;;;;24.20;16.65;;;5.00;99.90;;;;;;5115730;27;20191;-68
2021/12/13 06:22:17;;;;;;;24.63;17.60;;;4.90;99.90;;;;;;5115409;28;20198;-68
2021/12/13 06:24:58;;;;;;;29.65;20.48;;;4.90;99.90;;;;;;5115375;28;20182;-68
2021/12/13 06:27:26;;;;;;;31.52;19.45;;;4.90;99.90;;;;;;5115599;28;20194;-68
2021/12/13 06:29:59;;;;;;;36.03;22.40;;;4.80;99.90;;;;;;5115415;28;20210;-68
2021/12/13 06:32:37;;;;;;;33.50;22.25;;;4.80;99.90;;;;;;5115026;28;20218;-69
2021/12/13 06:35:37;;;;;;;39.17;24.05;;;4.80;99.90;;;;;;5115292;27;20614;-68
2021/12/13 06:38:18;;;;;;;40.15;24.23;;;4.80;99.90;;;;;;5114873;28;20654;-68
2021/12/13 06:40:53;;;;;;;47.97;26.10;;;4.80;99.90;;;;;;5115317;28;20255;-68
2021/12/13 06:43:33;;;;;;;40.65;24.77;;;4.70;99.90;;;;;;5115069;28;20175;-68
2021/12/13 06:46:04;;;;;;;53.08;28.05;;;4.80;99.90;;;;;;5115089;28;20178;-68
2021/12/13 06:48:45;;;;;;;41.08;25.38;;;4.70;99.90;;;;;;5115059;28;20187;-68
2021/12/13 06:51:18;;;;;;;47.85;27.15;;;4.70;99.90;;;;;;5114588;28;20283;-68
2021/12/13 06:54:01;;;;;;;45.72;26.38;;;4.70;99.90;;;;;;5114799;28;20267;-68
2021/12/13 06:56:31;;;;;;;50.40;26.65;;;4.70;99.90;;;;;;5115163;28;20190;-68
2021/12/13 06:59:02;;;;;;;49.70;27.10;;;4.70;99.90;;;;;;5115113;28;20274;-68
2021/12/13 07:01:34;;;;;;;49.30;26.70;;;4.70;99.90;;;;;;5114680;28;20206;-68
2021/12/13 07:04:11;;;;;;;46.80;27.42;;;4.70;99.90;;;;;;5114746;28;20251;-68
2021/12/13 07:06:38;;;;;;;49.20;25.20;;;4.70;99.90;;;;;;5113087;28;20594;-68
2021/12/13 07:09:05;;;;;;;53.15;28.35;;;4.70;99.90;;;;;;5114738;28;20665;-68
2021/12/13 07:11:57;;;;;;;41.97;25.60;;;4.70;99.90;;;;;;5114658;28;20218;-69
2021/12/13 07:14:38;;;;;;;48.40;25.23;;;4.70;99.90;;;;;;5110994;28;20251;-68
2021/12/13 07:17:18;;;;;;;41.72;25.10;;;4.70;99.90;;;;;;5114233;28;20251;-68
2021/12/13 07:19:49;;;;;;;43.60;24.80;;;4.80;99.90;;;;;;5114671;28;20210;-69
2021/12/13 07:22:23;;;;;;;41.22;25.60;;;4.80;99.90;;;;;;5112735;28;20198;-69
2021/12/13 07:25:03;;;;;;;43.40;25.73;;;4.80;99.90;;;;;;5114659;28;20197;-69
2021/12/13 07:27:33;;;;;;;47.58;27.20;;;4.80;99.90;;;;;;5114400;28;20265;-68
2021/12/13 07:30:13;;;;;;;43.53;25.25;;;4.80;99.90;;;;;;5114362;28;20208;-68
2021/12/13 07:32:45;;;;;;;47.80;28.25;;;4.80;99.90;;;;;;5113659;28;20213;-68
2021/12/13 07:35:17;;;;;;;41.90;25.30;;;4.80;99.90;;;;;;5113995;28;20203;-68
2021/12/13 07:37:55;;;;;;;49.10;26.65;;;4.90;99.90;;;;;;5114032;28;20191;-68
2021/12/13 07:40:41;;;;;;;51.35;28.33;;;4.90;99.90;;;;;;5112675;28;20255;-68
2021/12/13 07:43:13;;;;;;;49.88;26.95;;;4.90;99.90;;;;;;5113856;27;20263;-68
2021/12/13 07:45:55;;;;;;;49.00;26.17;;;5.00;99.90;;;;;;5114192;28;20194;-68
2021/12/13 07:48:54;;;;;;;49.42;26.90;;;5.00;99.90;;;;;;5113706;28;20570;-68
2021/12/13 07:51:27;;;;;;;52.60;26.90;;;5.00;99.90;;;;;;5103193;28;20234;-68
2021/12/13 07:54:00;;;;;;;52.17;26.77;;;4.90;99.90;;;;;;5113398;28;20229;-68
2021/12/13 07:56:39;;;;;;;55.60;26.67;;;5.00;99.90;;;;;;5112884;28;20609;-68
2021/12/13 07:59:12;;;;;;;58.45;27.75;;;4.90;99.90;;;;;;5113972;28;20175;-68
2021/12/13 08:01:59;;;;;;;61.00;28.80;;;5.00;99.90;;;;;;5113539;28;20210;-69
2021/12/13 08:04:33;;;;;;;50.10;26.55;;;5.00;99.90;;;;;;5114033;28;20194;-69
2021/12/13 08:07:22;;;;;;;60.83;28.17;;;5.00;99.90;;;;;;5113815;28;20181;-69
2021/12/13 08:10:01;;;;;;;64.10;30.00;;;5.00;99.90;;;;;;5113617;28;20214;-69
2021/12/13 08:12:37;;;;;;;62.90;28.45;;;4.90;99.90;;;;;;5113510;28;20283;-72
2021/12/13 08:15:26;;;;;;;66.75;29.90;;;5.00;99.90;;;;;;5113527;28;20235;-70
2021/12/13 08:17:56;;;;;;;69.13;32.22;;;5.00;99.90;;;;;;5114013;28;20207;-68
2021/12/13 08:20:32;;;;;;;74.72;30.13;;;5.10;99.90;;;;;;5113195;28;20195;-69
2021/12/13 08:23:00;;;;;;;65.95;30.77;;;5.10;99.90;;;;;;5113759;28;20214;-69
2021/12/13 08:25:34;;;;;;;65.97;30.85;;;5.10;99.90;;;;;;5113903;28;20198;-70
2021/12/13 08:28:15;;;;;;;77.47;31.55;;;5.20;99.90;;;;;;5113463;28;20247;-69
2021/12/13 08:30:54;;;;;;;60.38;29.35;;;5.20;99.90;;;;;;5113549;28;20724;-69
2021/12/13 08:33:26;;;;;;;67.43;27.48;;;5.30;99.90;;;;;;5113856;28;20229;-68
2021/12/13 08:35:57;;;;;;;75.10;29.92;;;5.20;99.90;;;;;;5113639;28;20209;-69
2021/12/13 08:38:46;;;;;;;63.00;28.88;;;5.20;99.90;;;;;;5116104;28;20562;-70
2021/12/13 08:41:15;;;;;;;76.32;28.50;;;5.30;99.90;;;;;;5117794;28;20199;-71
2021/12/13 08:43:44;;;;;;;67.63;29.98;;;5.20;99.90;;;;;;5117178;28;20260;-69
2021/12/13 08:46:23;;;;;;;65.40;27.77;;;5.30;99.90;;;;;;5117533;28;20557;-70
2021/12/13 08:48:51;;;;;;;58.55;30.23;;;5.40;99.90;;;;;;5117220;28;20595;-70
2021/12/13 08:51:25;;;;;;;61.22;29.08;;;5.40;99.90;;;;;;5116962;28;20222;-70
2021/12/13 08:54:08;;;;;;;59.05;27.90;;;5.50;99.90;;;;;;5117338;27;20218;-70
2021/12/13 08:56:45;;;;;;;52.88;27.70;;;5.50;99.90;;;;;;5117159;28;20622;-70
2021/12/13 08:59:20;;;;;;;58.80;26.63;;;5.60;99.90;;;;;;5117014;28;20215;-70
2021/12/13 09:01:54;;;;;;;51.55;25.60;;;5.60;99.90;;;;;;5116405;28;20582;-70
2021/12/13 09:04:46;;;;;;;58.97;26.10;;;5.50;99.90;;;;;;5115756;28;20625;-69
2021/12/13 09:07:13;;;;;;;48.30;23.00;;;5.50;99.90;;;;;;5102705;28;20203;-68
2021/12/13 09:09:46;;;;;;;48.90;23.80;;;5.60;99.90;;;;;;5116702;28;20633;-69
2021/12/13 09:12:15;;;;;;;62.30;25.73;;;5.70;99.90;;;;;;5116507;28;20222;-69
2021/12/13 09:14:51;;;;;;;47.25;24.02;;;5.60;99.90;;;;;;5115256;28;20202;-69
2021/12/13 09:17:22;;;;;;;49.70;24.73;;;5.70;99.90;;;;;;5116428;28;20179;-71
2021/12/13 09:19:55;;;;;;;43.80;22.83;;;5.80;99.90;;;;;;5116343;28;20680;-70
2021/12/13 09:22:27;;;;;;;52.90;27.02;;;5.90;99.90;;;;;;5116919;28;20187;-69
2021/12/13 09:25:14;;;;;;;61.28;21.58;;;5.90;99.90;;;;;;5116474;28;20209;-69
2021/12/13 09:27:47;;;;;;;59.55;22.65;;;5.80;99.90;;;;;;5115894;28;20203;-68
2021/12/13 09:30:19;;;;;;;81.45;23.20;;;5.90;99.90;;;;;;5116765;28;20194;-68
2021/12/13 09:33:01;;;;;;;77.20;22.75;;;5.90;99.90;;;;;;5116284;28;20211;-68
2021/12/13 09:35:30;;;;;;;55.60;21.17;;;5.80;99.90;;;;;;5116114;28;20211;-68
2021/12/13 09:38:21;;;;;;;40.40;19.67;;;5.90;99.90;;;;;;5116376;28;20205;-68
2021/12/13 09:41:16;;;;;;;45.60;18.00;;;6.10;99.90;;;;;;5116715;28;20189;-69
2021/12/13 09:43:46;;;;;;;34.58;17.48;;;6.20;99.90;;;;;;5080061;28;20202;-69
2021/12/13 09:46:19;;;;;;;35.90;16.70;;;6.20;99.90;;;;;;5115852;28;20194;-69
2021/12/13 09:48:52;;;;;;;38.33;15.63;;;6.30;99.90;;;;;;5115527;27;20198;-69
2021/12/13 09:51:33;;;;;;;32.08;14.77;;;6.30;99.90;;;;;;5115797;27;20247;-68
2021/12/13 09:54:04;;;;;;;32.72;14.30;;;6.40;99.90;;;;;;5116143;28;20214;-69
2021/12/13 09:56:36;;;;;;;31.40;15.93;;;6.40;99.90;;;;;;5115872;28;20187;-69
2021/12/13 09:59:16;;;;;;;25.38;13.65;;;6.70;99.90;;;;;;5115979;28;20251;-69
2021/12/13 10:01:43;;;;;;;27.10;13.18;;;6.60;99.90;;;;;;5115671;28;20232;-69
2021/12/13 10:04:24;;;;;;;24.23;12.80;;;6.80;99.90;;;;;;5115736;28;20205;-69
2021/12/13 10:06:57;;;;;;;21.60;13.05;;;6.90;99.90;;;;;;5115765;28;20206;-69
2021/12/13 10:09:30;;;;;;;19.02;11.13;;;6.90;99.90;;;;;;5115338;28;20186;-69
2021/12/13 10:12:15;;;;;;;21.45;10.50;;;7.10;99.90;;;;;;5115248;28;20223;-69
2021/12/13 10:14:54;;;;;;;14.52;9.60;;;7.20;99.90;;;;;;5115302;28;20630;-69
2021/12/13 10:17:26;;;;;;;15.32;9.88;;;7.20;99.90;;;;;;5114275;28;20183;-69
2021/12/13 10:19:57;;;;;;;15.65;10.55;;;7.30;99.90;;;;;;5115246;28;20191;-69
2021/12/13 10:22:29;;;;;;;19.42;10.50;;;7.40;99.90;;;;;;5115388;28;20675;-69
2021/12/13 10:25:07;;;;;;;15.38;10.00;;;7.50;99.90;;;;;;5115454;28;20186;-69
2021/12/13 10:27:33;;;;;;;11.00;7.90;;;7.40;99.90;;;;;;5115416;28;20178;-69
2021/12/13 10:30:05;;;;;;;12.50;8.82;;;7.40;99.90;;;;;;5114835;28;20213;-69
2021/12/13 10:32:36;;;;;;;12.65;8.57;;;7.40;99.90;;;;;;5115089;28;20275;-69
2021/12/13 10:35:11;;;;;;;12.43;8.80;;;7.30;99.90;;;;;;5114708;28;20175;-69
2021/12/13 10:37:41;;;;;;;14.27;9.27;;;7.20;99.90;;;;;;5114775;28;20182;-69
2021/12/13 10:40:21;;;;;;;16.25;10.25;;;7.20;99.90;;;;;;5115066;28;20260;-70
2021/12/13 10:42:54;;;;;;;18.52;10.32;;;7.20;99.90;;;;;;5115920;28;20209;-72
2021/12/13 10:45:29;;;;;;;19.08;11.35;;;7.20;99.90;;;;;;5115325;28;20690;-69
2021/12/13 10:48:04;;;;;;;17.50;11.50;;;7.40;99.90;;;;;;5113541;28;20202;-69
2021/12/13 10:50:56;;;;;;;12.88;9.50;;;7.40;99.90;;;;;;5114853;28;20576;-69
2021/12/13 10:53:26;;;;;;;13.93;9.27;;;7.30;99.90;;;;;;5114940;28;20282;-69
2021/12/13 10:56:04;;;;;;;17.42;10.93;;;7.30;99.90;;;;;;5114411;28;20212;-68
2021/12/13 10:58:35;;;;;;;14.48;9.68;;;7.30;99.90;;;;;;5114737;28;20191;-68
2021/12/13 11:01:08;;;;;;;15.45;10.27;;;7.40;99.90;;;;;;5113743;28;20529;-67
2021/12/13 11:03:37;;;;;;;19.33;11.20;;;7.60;99.90;;;;;;5112740;28;20202;-69
2021/12/13 11:06:06;;;;;;;16.30;9.50;;;7.50;99.90;;;;;;5113036;28;20624;-70
2021/12/13 11:08:33;;;;;;;16.02;9.90;;;7.50;99.90;;;;;;5114795;28;20563;-70
2021/12/13 11:11:07;;;;;;;13.82;8.95;;;7.60;99.90;;;;;;5114454;28;20259;-69
2021/12/13 11:13:36;;;;;;;12.15;9.45;;;7.60;99.90;;;;;;5113897;28;20218;-68
2021/12/13 11:16:40;;;;;;;12.95;8.93;;;7.80;99.90;;;;;;5114080;28;20675;-71
2021/12/13 11:19:11;;;;;;;12.75;8.43;;;7.90;99.90;;;;;;5114190;28;20200;-69
2021/12/13 11:21:41;;;;;;;14.65;9.30;;;7.90;99.90;;;;;;5114329;28;20202;-69
2021/12/13 11:24:15;;;;;;;13.35;8.70;;;8.00;99.90;;;;;;5113872;28;20696;-69
2021/12/13 11:26:44;;;;;;;22.40;13.68;;;7.90;99.90;;;;;;5114468;28;20550;-68
2021/12/13 11:29:15;;;;;;;25.48;14.35;;;8.30;99.90;;;;;;5114356;28;20640;-68
2021/12/13 11:31:48;;;;;;;14.70;10.63;;;8.50;99.90;;;;;;5113715;28;20228;-69
2021/12/13 11:34:32;;;;;;;14.07;9.48;;;8.60;99.90;;;;;;5113551;28;20545;-69
2021/12/13 11:37:23;;;;;;;16.58;9.77;;;8.40;99.90;;;;;;5114186;28;20566;-69
2021/12/13 11:40:26;;;;;;;12.95;8.75;;;8.60;99.90;;;;;;5114087;28;20183;-70
2021/12/13 11:43:03;;;;;;;16.95;9.80;;;8.80;99.90;;;;;;5114252;28;20247;-69
2021/12/13 11:45:50;;;;;;;13.07;9.77;;;8.80;99.90;;;;;;5114222;28;20209;-69
2021/12/13 11:48:34;;;;;;;20.70;13.38;;;9.20;99.90;;;;;;5113714;28;20190;-70
2021/12/13 11:51:28;;;;;;;17.52;12.30;;;9.40;99.90;;;;;;5113528;28;20230;-69
2021/12/13 11:54:16;;;;;;;21.83;12.32;;;9.60;99.90;;;;;;5113487;28;20666;-69
2021/12/13 11:57:14;;;;;;;13.40;9.98;;;9.50;99.90;;;;;;5114201;28;20186;-69
2021/12/13 12:00:14;;;;;;;20.60;10.95;;;9.30;99.90;;;;;;5113812;28;20288;-69
2021/12/13 12:03:02;;;;;;;15.50;10.43;;;9.30;99.90;;;;;;5111729;28;20198;-69
2021/12/13 12:05:47;;;;;;;12.50;9.75;;;9.30;99.90;;;;;;5113453;28;20634;-69
2021/12/13 12:08:53;;;;;;;21.92;11.07;;;9.40;99.90;;;;;;5113917;28;20202;-70
2021/12/13 12:11:47;;;;;;;14.48;10.45;;;9.40;99.90;;;;;;5113312;28;20208;-69
2021/12/13 12:14:13;;;;;;;14.45;10.32;;;9.60;99.90;;;;;;5117073;28;20208;-69
2021/12/13 12:16:48;;;;;;;19.70;11.00;;;9.50;99.90;;;;;;5118310;27;20190;-70
2021/12/13 12:19:21;;;;;;;12.60;10.50;;;9.60;99.90;;;;;;5117685;28;20195;-67
2021/12/13 12:22:07;;;;;;;15.40;11.45;;;9.70;99.90;;;;;;5117640;28;20190;-69
2021/12/13 12:24:39;;;;;;;11.68;9.43;;;9.60;99.90;;;;;;5117812;28;20523;-69
2021/12/13 12:27:09;;;;;;;14.82;10.55;;;9.20;99.90;;;;;;5117492;28;20554;-68
2021/12/13 12:29:40;;;;;;;20.58;12.55;;;9.10;99.90;;;;;;5117416;28;20639;-68
2021/12/13 12:32:26;;;;;;;14.98;10.05;;;9.10;99.90;;;;;;5116907;28;20199;-69
2021/12/13 12:35:00;;;;;;;12.43;9.77;;;9.30;99.90;;;;;;5116908;28;20251;-68
2021/12/13 12:37:30;;;;;;;12.40;9.35;;;9.20;99.90;;;;;;5115937;28;20653;-69
2021/12/13 12:40:07;;;;;;;15.68;10.60;;;9.10;99.90;;;;;;5117395;28;20203;-69
2021/12/13 12:42:43;;;;;;;17.42;9.60;;;9.20;99.90;;;;;;5116899;28;20198;-70
2021/12/13 12:45:18;;;;;;;13.73;9.90;;;9.30;99.90;;;;;;5117154;28;20235;-69
2021/12/13 12:47:59;;;;;;;10.82;8.73;;;9.40;99.90;;;;;;5116149;28;20557;-69
2021/12/13 12:50:37;;;;;;;17.50;10.52;;;9.40;99.90;;;;;;5115549;28;20194;-70
2021/12/13 12:53:38;;;;;;;23.95;13.23;;;9.50;99.90;;;;;;5116798;28;20199;-69
2021/12/13 12:56:28;;;;;;;13.07;9.45;;;9.40;99.90;;;;;;5084994;27;20682;-69
2021/12/13 12:58:58;;;;;;;9.68;8.05;;;9.40;99.90;;;;;;5102600;28;20194;-69
2021/12/13 13:01:49;;;;;;;10.90;8.15;;;9.50;99.90;;;;;;5116662;28;20206;-69
2021/12/13 13:04:19;;;;;;;16.85;8.10;;;9.50;99.90;;;;;;5117061;28;20190;-69
2021/12/13 13:06:51;;;;;;;8.90;7.38;;;9.60;99.90;;;;;;5115730;28;20231;-68
2021/12/13 13:09:18;;;;;;;9.57;7.78;;;9.60;99.90;;;;;;5117294;28;20206;-68
2021/12/13 13:11:50;;;;;;;12.70;6.47;;;9.70;99.90;;;;;;5117113;28;20454;-68
2021/12/13 13:14:27;;;;;;;8.80;7.80;;;9.50;99.90;;;;;;5116803;28;20739;-69
2021/12/13 13:17:08;;;;;;;10.20;7.07;;;9.50;99.90;;;;;;5116888;28;20540;-68
2021/12/13 13:19:36;;;;;;;6.85;6.20;;;9.50;99.90;;;;;;5116532;28;20183;-69
2021/12/13 13:22:12;;;;;;;6.50;5.32;;;9.40;99.90;;;;;;5113959;28;20194;-69
2021/12/13 13:24:41;;;;;;;6.75;6.15;;;9.40;99.90;;;;;;5115909;28;20545;-69
2021/12/13 13:27:09;;;;;;;7.72;7.03;;;9.30;99.90;;;;;;5116196;28;20227;-69
2021/12/13 13:29:37;;;;;;;11.52;5.72;;;9.30;99.90;;;;;;5116790;28;20562;-68
2021/12/13 13:32:09;;;;;;;13.25;6.80;;;9.20;99.90;;;;;;5116923;28;20743;-68
2021/12/13 13:34:46;;;;;;;7.07;6.30;;;9.30;99.90;;;;;;5118111;27;20195;-68
2021/12/13 13:37:21;;;;;;;5.30;4.80;;;9.30;99.90;;;;;;5118342;28;20259;-68